sensor_id;sensor_type;location;lat;lon;timestamp;P1;durP1;ratioP1;P2;durP2;ratioP2
71769;SDS011;66386;52.122;5.420;2023-12-14T00:01:48;11.40;;;6.40;;
71769;SDS011;66386;52.122;5.420;2023-12-14T00:04:15;11.53;;;5.83;;
71769;SDS011;66386;52.122;5.420;2023-12-14T00:06:41;9.65;;;5.20;;
71769;SDS011;66386;52.122;5.420;2023-12-14T00:09:08;14.77;;;6.43;;
71769;SDS011;66386;52.122;5.420;2023-12-14T00:11:40;12.60;;;6.35;;
71769;SDS011;66386;52.122;5.420;2023-12-14T00:14:07;12.18;;;6.28;;
71769;SDS011;66386;52.122;5.420;2023-12-14T00:16:33;9.83;;;5.93;;
71769;SDS011;66386;52.122;5.420;2023-12-14T00:19:00;13.05;;;6.70;;
71769;SDS011;66386;52.122;5.420;2023-12-14T00:21:27;10.52;;;6.45;;
71769;SDS011;66386;52.122;5.420;2023-12-14T00:23:53;12.00;;;6.45;;
71769;SDS011;66386;52.122;5.420;2023-12-14T00:26:20;10.48;;;5.82;;
71769;SDS011;66386;52.122;5.420;2023-12-14T00:28:46;12.83;;;6.47;;
71769;SDS011;66386;52.122;5.420;2023-12-14T00:31:13;9.88;;;5.93;;
71769;SDS011;66386;52.122;5.420;2023-12-14T00:33:39;10.75;;;5.88;;
71769;SDS011;66386;52.122;5.420;2023-12-14T00:36:06;9.02;;;5.60;;
71769;SDS011;66386;52.122;5.420;2023-12-14T00:38:33;13.88;;;7.28;;
71769;SDS011;66386;52.122;5.420;2023-12-14T00:40:59;10.30;;;6.17;;
71769;SDS011;66386;52.122;5.420;2023-12-14T00:43:26;9.05;;;5.30;;
71769;SDS011;66386;52.122;5.420;2023-12-14T00:45:52;11.23;;;5.88;;
71769;SDS011;66386;52.122;5.420;2023-12-14T00:48:19;9.10;;;5.15;;
71769;SDS011;66386;52.122;5.420;2023-12-14T00:50:45;9.57;;;5.53;;
71769;SDS011;66386;52.122;5.420;2023-12-14T00:53:12;9.20;;;5.60;;
71769;SDS011;66386;52.122;5.420;2023-12-14T00:55:38;10.63;;;4.55;;
71769;SDS011;66386;52.122;5.420;2023-12-14T00:58:05;8.30;;;4.90;;
71769;SDS011;66386;52.122;5.420;2023-12-14T01:00:31;8.63;;;5.20;;
71769;SDS011;66386;52.122;5.420;2023-12-14T01:02:58;8.68;;;5.28;;
71769;SDS011;66386;52.122;5.420;2023-12-14T01:05:24;8.63;;;5.33;;
71769;SDS011;66386;52.122;5.420;2023-12-14T01:07:51;10.65;;;6.13;;
71769;SDS011;66386;52.122;5.420;2023-12-14T01:10:17;11.63;;;6.35;;
71769;SDS011;66386;52.122;5.420;2023-12-14T01:12:44;10.13;;;5.75;;
71769;SDS011;66386;52.122;5.420;2023-12-14T01:15:10;10.05;;;5.75;;
71769;SDS011;66386;52.122;5.420;2023-12-14T01:17:37;12.77;;;6.00;;
71769;SDS011;66386;52.122;5.420;2023-12-14T01:20:05;9.93;;;5.72;;
71769;SDS011;66386;52.122;5.420;2023-12-14T01:22:33;9.90;;;5.88;;
71769;SDS011;66386;52.122;5.420;2023-12-14T01:25:00;9.45;;;5.25;;
71769;SDS011;66386;52.122;5.420;2023-12-14T01:27:26;9.57;;;5.45;;
71769;SDS011;66386;52.122;5.420;2023-12-14T01:29:53;9.40;;;5.80;;
71769;SDS011;66386;52.122;5.420;2023-12-14T01:32:19;9.90;;;6.20;;
71769;SDS011;66386;52.122;5.420;2023-12-14T01:34:46;8.90;;;5.03;;
71769;SDS011;66386;52.122;5.420;2023-12-14T01:37:12;9.38;;;5.00;;
71769;SDS011;66386;52.122;5.420;2023-12-14T01:39:39;9.70;;;5.45;;
71769;SDS011;66386;52.122;5.420;2023-12-14T01:42:05;8.53;;;5.50;;
71769;SDS011;66386;52.122;5.420;2023-12-14T01:44:32;11.80;;;5.53;;
71769;SDS011;66386;52.122;5.420;2023-12-14T01:46:58;10.63;;;4.90;;
71769;SDS011;66386;52.122;5.420;2023-12-14T01:49:25;9.23;;;5.38;;
71769;SDS011;66386;52.122;5.420;2023-12-14T01:51:51;8.73;;;5.13;;
71769;SDS011;66386;52.122;5.420;2023-12-14T01:54:18;8.40;;;5.33;;
71769;SDS011;66386;52.122;5.420;2023-12-14T01:56:44;8.88;;;4.55;;
71769;SDS011;66386;52.122;5.420;2023-12-14T01:59:12;7.72;;;4.95;;
71769;SDS011;66386;52.122;5.420;2023-12-14T02:01:43;8.77;;;4.95;;
71769;SDS011;66386;52.122;5.420;2023-12-14T02:04:13;9.10;;;5.53;;
71769;SDS011;66386;52.122;5.420;2023-12-14T02:06:41;10.07;;;5.80;;
71769;SDS011;66386;52.122;5.420;2023-12-14T02:09:07;7.20;;;4.95;;
71769;SDS011;66386;52.122;5.420;2023-12-14T02:11:34;8.88;;;5.70;;
71769;SDS011;66386;52.122;5.420;2023-12-14T02:14:05;10.27;;;5.35;;
71769;SDS011;66386;52.122;5.420;2023-12-14T02:16:32;9.80;;;5.32;;
71769;SDS011;66386;52.122;5.420;2023-12-14T02:18:59;8.33;;;5.33;;
71769;SDS011;66386;52.122;5.420;2023-12-14T02:21:25;9.75;;;5.18;;
71769;SDS011;66386;52.122;5.420;2023-12-14T02:23:52;8.85;;;5.45;;
71769;SDS011;66386;52.122;5.420;2023-12-14T02:26:19;9.52;;;5.93;;
71769;SDS011;66386;52.122;5.420;2023-12-14T02:28:45;8.27;;;5.28;;
71769;SDS011;66386;52.122;5.420;2023-12-14T02:31:12;9.83;;;5.60;;
71769;SDS011;66386;52.122;5.420;2023-12-14T02:33:38;9.15;;;5.38;;
71769;SDS011;66386;52.122;5.420;2023-12-14T02:36:05;10.82;;;5.68;;
71769;SDS011;66386;52.122;5.420;2023-12-14T02:38:32;8.68;;;5.22;;
71769;SDS011;66386;52.122;5.420;2023-12-14T02:40:59;9.43;;;6.07;;
71769;SDS011;66386;52.122;5.420;2023-12-14T02:43:25;9.07;;;5.10;;
71769;SDS011;66386;52.122;5.420;2023-12-14T02:45:51;9.00;;;5.53;;
71769;SDS011;66386;52.122;5.420;2023-12-14T02:48:18;10.93;;;6.07;;
71769;SDS011;66386;52.122;5.420;2023-12-14T02:50:44;9.95;;;6.32;;
71769;SDS011;66386;52.122;5.420;2023-12-14T02:53:11;8.50;;;5.80;;
71769;SDS011;66386;52.122;5.420;2023-12-14T02:55:38;9.93;;;5.37;;
71769;SDS011;66386;52.122;5.420;2023-12-14T02:58:05;9.88;;;6.28;;
71769;SDS011;66386;52.122;5.420;2023-12-14T03:00:32;9.90;;;5.45;;
71769;SDS011;66386;52.122;5.420;2023-12-14T03:02:58;9.00;;;5.47;;
71769;SDS011;66386;52.122;5.420;2023-12-14T03:05:25;9.25;;;5.82;;
71769;SDS011;66386;52.122;5.420;2023-12-14T03:07:51;10.03;;;5.87;;
71769;SDS011;66386;52.122;5.420;2023-12-14T03:10:18;8.75;;;5.40;;
71769;SDS011;66386;52.122;5.420;2023-12-14T03:12:44;10.00;;;5.60;;
71769;SDS011;66386;52.122;5.420;2023-12-14T03:15:11;6.90;;;4.93;;
71769;SDS011;66386;52.122;5.420;2023-12-14T03:17:37;12.00;;;6.57;;
71769;SDS011;66386;52.122;5.420;2023-12-14T03:20:04;10.87;;;5.90;;
71769;SDS011;66386;52.122;5.420;2023-12-14T03:22:32;11.70;;;6.18;;
71769;SDS011;66386;52.122;5.420;2023-12-14T03:24:59;10.52;;;6.35;;
71769;SDS011;66386;52.122;5.420;2023-12-14T03:27:26;9.57;;;5.35;;
71769;SDS011;66386;52.122;5.420;2023-12-14T03:29:52;10.50;;;5.93;;
71769;SDS011;66386;52.122;5.420;2023-12-14T03:32:18;10.67;;;6.23;;
71769;SDS011;66386;52.122;5.420;2023-12-14T03:34:45;9.70;;;5.93;;
71769;SDS011;66386;52.122;5.420;2023-12-14T03:37:12;9.70;;;6.40;;
71769;SDS011;66386;52.122;5.420;2023-12-14T03:39:38;10.82;;;6.18;;
71769;SDS011;66386;52.122;5.420;2023-12-14T03:42:05;11.13;;;6.70;;
71769;SDS011;66386;52.122;5.420;2023-12-14T03:44:31;10.70;;;6.00;;
71769;SDS011;66386;52.122;5.420;2023-12-14T03:46:58;10.32;;;6.28;;
71769;SDS011;66386;52.122;5.420;2023-12-14T03:49:26;11.13;;;6.10;;
71769;SDS011;66386;52.122;5.420;2023-12-14T03:51:53;11.52;;;6.10;;
71769;SDS011;66386;52.122;5.420;2023-12-14T03:54:19;12.98;;;6.43;;
71769;SDS011;66386;52.122;5.420;2023-12-14T03:56:46;9.80;;;5.53;;
71769;SDS011;66386;52.122;5.420;2023-12-14T03:59:12;11.98;;;6.03;;
71769;SDS011;66386;52.122;5.420;2023-12-14T04:01:39;11.77;;;6.57;;
71769;SDS011;66386;52.122;5.420;2023-12-14T04:04:06;10.25;;;6.25;;
71769;SDS011;66386;52.122;5.420;2023-12-14T04:06:32;12.00;;;5.82;;
71769;SDS011;66386;52.122;5.420;2023-12-14T04:08:59;9.90;;;6.03;;
71769;SDS011;66386;52.122;5.420;2023-12-14T04:11:25;9.25;;;6.15;;
71769;SDS011;66386;52.122;5.420;2023-12-14T04:13:51;10.95;;;6.47;;
71769;SDS011;66386;52.122;5.420;2023-12-14T04:16:20;10.15;;;6.57;;
71769;SDS011;66386;52.122;5.420;2023-12-14T04:18:51;9.52;;;5.63;;
71769;SDS011;66386;52.122;5.420;2023-12-14T04:21:18;11.27;;;5.93;;
71769;SDS011;66386;52.122;5.420;2023-12-14T04:23:44;12.30;;;6.05;;
71769;SDS011;66386;52.122;5.420;2023-12-14T04:26:12;13.13;;;5.93;;
71769;SDS011;66386;52.122;5.420;2023-12-14T04:28:40;11.32;;;5.32;;
71769;SDS011;66386;52.122;5.420;2023-12-14T04:31:07;12.40;;;5.88;;
71769;SDS011;66386;52.122;5.420;2023-12-14T04:33:33;10.37;;;5.70;;
71769;SDS011;66386;52.122;5.420;2023-12-14T04:36:00;12.20;;;6.38;;
71769;SDS011;66386;52.122;5.420;2023-12-14T04:38:26;9.63;;;5.85;;
71769;SDS011;66386;52.122;5.420;2023-12-14T04:40:53;9.43;;;4.85;;
71769;SDS011;66386;52.122;5.420;2023-12-14T04:43:19;10.32;;;5.53;;
71769;SDS011;66386;52.122;5.420;2023-12-14T04:45:45;9.00;;;5.17;;
71769;SDS011;66386;52.122;5.420;2023-12-14T04:48:12;9.95;;;5.70;;
71769;SDS011;66386;52.122;5.420;2023-12-14T04:50:39;10.23;;;5.05;;
71769;SDS011;66386;52.122;5.420;2023-12-14T04:53:05;8.93;;;5.03;;
71769;SDS011;66386;52.122;5.420;2023-12-14T04:55:32;6.95;;;4.60;;
71769;SDS011;66386;52.122;5.420;2023-12-14T04:57:58;8.70;;;4.70;;
71769;SDS011;66386;52.122;5.420;2023-12-14T05:00:25;7.82;;;4.70;;
71769;SDS011;66386;52.122;5.420;2023-12-14T05:02:51;7.60;;;4.32;;
71769;SDS011;66386;52.122;5.420;2023-12-14T05:05:18;7.63;;;4.45;;
71769;SDS011;66386;52.122;5.420;2023-12-14T05:07:44;6.68;;;4.70;;
71769;SDS011;66386;52.122;5.420;2023-12-14T05:10:11;8.03;;;4.30;;
71769;SDS011;66386;52.122;5.420;2023-12-14T05:12:37;6.95;;;4.28;;
71769;SDS011;66386;52.122;5.420;2023-12-14T05:15:05;10.02;;;5.00;;
71769;SDS011;66386;52.122;5.420;2023-12-14T05:17:32;8.88;;;5.05;;
71769;SDS011;66386;52.122;5.420;2023-12-14T05:19:58;10.57;;;4.93;;
71769;SDS011;66386;52.122;5.420;2023-12-14T05:22:25;7.87;;;4.27;;
71769;SDS011;66386;52.122;5.420;2023-12-14T05:24:51;8.10;;;5.15;;
71769;SDS011;66386;52.122;5.420;2023-12-14T05:27:18;9.45;;;4.82;;
71769;SDS011;66386;52.122;5.420;2023-12-14T05:29:44;8.05;;;4.13;;
71769;SDS011;66386;52.122;5.420;2023-12-14T05:32:11;8.43;;;4.63;;
71769;SDS011;66386;52.122;5.420;2023-12-14T05:34:37;8.83;;;4.30;;
71769;SDS011;66386;52.122;5.420;2023-12-14T05:37:04;7.70;;;4.65;;
71769;SDS011;66386;52.122;5.420;2023-12-14T05:39:30;13.95;;;5.43;;
71769;SDS011;66386;52.122;5.420;2023-12-14T05:41:57;9.30;;;4.85;;
71769;SDS011;66386;52.122;5.420;2023-12-14T05:44:23;8.82;;;4.53;;
71769;SDS011;66386;52.122;5.420;2023-12-14T05:46:51;8.33;;;5.00;;
71769;SDS011;66386;52.122;5.420;2023-12-14T05:49:17;9.25;;;4.80;;
71769;SDS011;66386;52.122;5.420;2023-12-14T05:51:44;9.15;;;4.15;;
71769;SDS011;66386;52.122;5.420;2023-12-14T05:54:10;7.10;;;3.83;;
71769;SDS011;66386;52.122;5.420;2023-12-14T05:56:37;6.57;;;4.07;;
71769;SDS011;66386;52.122;5.420;2023-12-14T05:59:05;8.03;;;3.67;;
71769;SDS011;66386;52.122;5.420;2023-12-14T06:01:32;6.10;;;3.60;;
71769;SDS011;66386;52.122;5.420;2023-12-14T06:03:59;6.80;;;4.20;;
71769;SDS011;66386;52.122;5.420;2023-12-14T06:06:25;7.85;;;4.20;;
71769;SDS011;66386;52.122;5.420;2023-12-14T06:08:52;9.73;;;4.00;;
71769;SDS011;66386;52.122;5.420;2023-12-14T06:11:18;7.47;;;3.73;;
71769;SDS011;66386;52.122;5.420;2023-12-14T06:13:46;7.18;;;4.30;;
71769;SDS011;66386;52.122;5.420;2023-12-14T06:16:13;6.63;;;3.92;;
71769;SDS011;66386;52.122;5.420;2023-12-14T06:18:40;5.90;;;3.28;;
71769;SDS011;66386;52.122;5.420;2023-12-14T06:21:11;6.50;;;3.42;;
71769;SDS011;66386;52.122;5.420;2023-12-14T06:23:38;7.10;;;3.87;;
71769;SDS011;66386;52.122;5.420;2023-12-14T06:26:05;6.60;;;3.50;;
71769;SDS011;66386;52.122;5.420;2023-12-14T06:28:32;6.60;;;3.58;;
71769;SDS011;66386;52.122;5.420;2023-12-14T06:30:58;6.00;;;3.22;;
71769;SDS011;66386;52.122;5.420;2023-12-14T06:33:25;6.70;;;3.60;;
71769;SDS011;66386;52.122;5.420;2023-12-14T06:35:51;5.50;;;3.43;;
71769;SDS011;66386;52.122;5.420;2023-12-14T06:38:18;6.78;;;3.42;;
71769;SDS011;66386;52.122;5.420;2023-12-14T06:40:44;11.55;;;3.83;;
71769;SDS011;66386;52.122;5.420;2023-12-14T06:43:11;5.85;;;3.88;;
71769;SDS011;66386;52.122;5.420;2023-12-14T06:45:37;6.05;;;3.65;;
71769;SDS011;66386;52.122;5.420;2023-12-14T06:48:04;5.30;;;3.60;;
71769;SDS011;66386;52.122;5.420;2023-12-14T06:50:31;5.82;;;3.53;;
71769;SDS011;66386;52.122;5.420;2023-12-14T06:52:57;5.90;;;3.25;;
71769;SDS011;66386;52.122;5.420;2023-12-14T06:55:24;5.57;;;3.30;;
71769;SDS011;66386;52.122;5.420;2023-12-14T06:57:51;6.82;;;3.90;;
71769;SDS011;66386;52.122;5.420;2023-12-14T07:00:17;9.53;;;4.00;;
71769;SDS011;66386;52.122;5.420;2023-12-14T07:02:44;7.05;;;3.55;;
71769;SDS011;66386;52.122;5.420;2023-12-14T07:05:10;6.00;;;3.22;;
71769;SDS011;66386;52.122;5.420;2023-12-14T07:07:37;6.90;;;3.55;;
71769;SDS011;66386;52.122;5.420;2023-12-14T07:10:04;5.43;;;3.10;;
71769;SDS011;66386;52.122;5.420;2023-12-14T07:12:31;5.20;;;2.97;;
71769;SDS011;66386;52.122;5.420;2023-12-14T07:14:57;6.97;;;4.15;;
71769;SDS011;66386;52.122;5.420;2023-12-14T07:17:24;5.07;;;3.45;;
71769;SDS011;66386;52.122;5.420;2023-12-14T07:19:51;5.95;;;3.55;;
71769;SDS011;66386;52.122;5.420;2023-12-14T07:22:17;5.80;;;3.50;;
71769;SDS011;66386;52.122;5.420;2023-12-14T07:24:44;5.97;;;3.90;;
71769;SDS011;66386;52.122;5.420;2023-12-14T07:27:21;5.93;;;3.17;;
71769;SDS011;66386;52.122;5.420;2023-12-14T07:29:48;6.22;;;3.85;;
71769;SDS011;66386;52.122;5.420;2023-12-14T07:32:14;5.65;;;3.88;;
71769;SDS011;66386;52.122;5.420;2023-12-14T07:34:41;5.85;;;3.35;;
71769;SDS011;66386;52.122;5.420;2023-12-14T07:37:07;6.00;;;3.57;;
71769;SDS011;66386;52.122;5.420;2023-12-14T07:39:34;5.80;;;3.92;;
71769;SDS011;66386;52.122;5.420;2023-12-14T07:42:00;6.25;;;3.65;;
71769;SDS011;66386;52.122;5.420;2023-12-14T07:44:27;5.68;;;3.88;;
71769;SDS011;66386;52.122;5.420;2023-12-14T07:46:56;4.63;;;3.25;;
71769;SDS011;66386;52.122;5.420;2023-12-14T07:49:25;6.33;;;3.90;;
71769;SDS011;66386;52.122;5.420;2023-12-14T07:51:52;5.43;;;3.55;;
71769;SDS011;66386;52.122;5.420;2023-12-14T07:54:19;7.03;;;3.80;;
71769;SDS011;66386;52.122;5.420;2023-12-14T07:56:45;4.95;;;3.55;;
71769;SDS011;66386;52.122;5.420;2023-12-14T07:59:12;6.50;;;3.90;;
71769;SDS011;66386;52.122;5.420;2023-12-14T08:01:39;5.40;;;3.70;;
71769;SDS011;66386;52.122;5.420;2023-12-14T08:04:05;7.05;;;3.80;;
71769;SDS011;66386;52.122;5.420;2023-12-14T08:06:32;5.55;;;3.38;;
71769;SDS011;66386;52.122;5.420;2023-12-14T08:08:58;5.30;;;3.85;;
71769;SDS011;66386;52.122;5.420;2023-12-14T08:11:25;6.55;;;4.25;;
71769;SDS011;66386;52.122;5.420;2023-12-14T08:13:51;8.80;;;4.17;;
71769;SDS011;66386;52.122;5.420;2023-12-14T08:16:18;6.35;;;4.47;;
71769;SDS011;66386;52.122;5.420;2023-12-14T08:18:44;10.73;;;3.92;;
71769;SDS011;66386;52.122;5.420;2023-12-14T08:21:12;8.85;;;4.43;;
71769;SDS011;66386;52.122;5.420;2023-12-14T08:23:38;6.75;;;4.40;;
71769;SDS011;66386;52.122;5.420;2023-12-14T08:26:05;8.40;;;4.53;;
71769;SDS011;66386;52.122;5.420;2023-12-14T08:28:31;7.38;;;4.30;;
71769;SDS011;66386;52.122;5.420;2023-12-14T08:30:58;6.45;;;4.00;;
71769;SDS011;66386;52.122;5.420;2023-12-14T08:33:25;7.95;;;3.90;;
71769;SDS011;66386;52.122;5.420;2023-12-14T08:35:51;6.00;;;3.72;;
71769;SDS011;66386;52.122;5.420;2023-12-14T08:38:18;7.50;;;3.73;;
71769;SDS011;66386;52.122;5.420;2023-12-14T08:40:44;6.22;;;3.38;;
71769;SDS011;66386;52.122;5.420;2023-12-14T08:43:11;6.70;;;3.85;;
71769;SDS011;66386;52.122;5.420;2023-12-14T08:45:38;7.80;;;4.28;;
71769;SDS011;66386;52.122;5.420;2023-12-14T08:48:04;7.35;;;4.47;;
71769;SDS011;66386;52.122;5.420;2023-12-14T08:50:31;7.77;;;4.20;;
71769;SDS011;66386;52.122;5.420;2023-12-14T08:52:58;7.30;;;4.30;;
71769;SDS011;66386;52.122;5.420;2023-12-14T08:55:25;6.03;;;3.63;;
71769;SDS011;66386;52.122;5.420;2023-12-14T08:57:52;6.75;;;3.97;;
71769;SDS011;66386;52.122;5.420;2023-12-14T09:00:19;6.82;;;4.22;;
71769;SDS011;66386;52.122;5.420;2023-12-14T09:02:45;8.17;;;4.10;;
71769;SDS011;66386;52.122;5.420;2023-12-14T09:05:13;6.30;;;3.88;;
71769;SDS011;66386;52.122;5.420;2023-12-14T09:07:42;7.15;;;3.85;;
71769;SDS011;66386;52.122;5.420;2023-12-14T09:10:09;7.70;;;4.50;;
71769;SDS011;66386;52.122;5.420;2023-12-14T09:12:36;9.35;;;4.55;;
71769;SDS011;66386;52.122;5.420;2023-12-14T09:15:03;6.97;;;4.53;;
71769;SDS011;66386;52.122;5.420;2023-12-14T09:17:30;6.80;;;4.18;;
71769;SDS011;66386;52.122;5.420;2023-12-14T09:20:03;8.00;;;4.10;;
71769;SDS011;66386;52.122;5.420;2023-12-14T09:22:33;6.65;;;4.47;;
71769;SDS011;66386;52.122;5.420;2023-12-14T09:25:00;7.55;;;4.43;;
71769;SDS011;66386;52.122;5.420;2023-12-14T09:27:27;8.10;;;4.07;;
71769;SDS011;66386;52.122;5.420;2023-12-14T09:29:53;6.25;;;3.88;;
71769;SDS011;66386;52.122;5.420;2023-12-14T09:32:20;6.57;;;4.32;;
71769;SDS011;66386;52.122;5.420;2023-12-14T09:34:46;6.82;;;3.85;;
71769;SDS011;66386;52.122;5.420;2023-12-14T09:37:13;6.75;;;4.10;;
71769;SDS011;66386;52.122;5.420;2023-12-14T09:39:40;5.83;;;4.50;;
71769;SDS011;66386;52.122;5.420;2023-12-14T09:42:07;8.50;;;4.63;;
71769;SDS011;66386;52.122;5.420;2023-12-14T09:44:34;6.05;;;3.95;;
71769;SDS011;66386;52.122;5.420;2023-12-14T09:47:03;7.40;;;4.28;;
71769;SDS011;66386;52.122;5.420;2023-12-14T09:49:30;6.00;;;4.22;;
71769;SDS011;66386;52.122;5.420;2023-12-14T09:51:57;7.40;;;4.10;;
71769;SDS011;66386;52.122;5.420;2023-12-14T09:54:24;6.30;;;4.03;;
71769;SDS011;66386;52.122;5.420;2023-12-14T09:56:52;7.95;;;4.25;;
71769;SDS011;66386;52.122;5.420;2023-12-14T09:59:20;9.18;;;4.40;;
71769;SDS011;66386;52.122;5.420;2023-12-14T10:01:47;7.72;;;4.18;;
71769;SDS011;66386;52.122;5.420;2023-12-14T10:04:14;6.47;;;4.40;;
71769;SDS011;66386;52.122;5.420;2023-12-14T10:06:43;6.67;;;4.10;;
71769;SDS011;66386;52.122;5.420;2023-12-14T10:09:12;9.20;;;4.50;;
71769;SDS011;66386;52.122;5.420;2023-12-14T10:11:42;5.28;;;3.90;;
71769;SDS011;66386;52.122;5.420;2023-12-14T10:14:22;8.75;;;4.40;;
71769;SDS011;66386;52.122;5.420;2023-12-14T10:16:51;7.57;;;4.00;;
71769;SDS011;66386;52.122;5.420;2023-12-14T10:19:28;6.73;;;3.80;;
71769;SDS011;66386;52.122;5.420;2023-12-14T10:21:54;5.45;;;3.45;;
71769;SDS011;66386;52.122;5.420;2023-12-14T10:24:21;5.50;;;3.90;;
71769;SDS011;66386;52.122;5.420;2023-12-14T10:26:48;6.35;;;3.63;;
71769;SDS011;66386;52.122;5.420;2023-12-14T10:29:17;7.45;;;3.70;;
71769;SDS011;66386;52.122;5.420;2023-12-14T10:31:44;6.13;;;3.60;;
71769;SDS011;66386;52.122;5.420;2023-12-14T10:34:11;7.60;;;3.72;;
71769;SDS011;66386;52.122;5.420;2023-12-14T10:36:39;6.20;;;3.15;;
71769;SDS011;66386;52.122;5.420;2023-12-14T10:39:06;5.05;;;3.63;;
71769;SDS011;66386;52.122;5.420;2023-12-14T10:41:36;6.68;;;3.85;;
71769;SDS011;66386;52.122;5.420;2023-12-14T10:44:03;8.00;;;3.63;;
71769;SDS011;66386;52.122;5.420;2023-12-14T10:46:52;7.03;;;3.80;;
71769;SDS011;66386;52.122;5.420;2023-12-14T10:49:25;5.95;;;3.75;;
71769;SDS011;66386;52.122;5.420;2023-12-14T10:51:52;6.32;;;4.38;;
71769;SDS011;66386;52.122;5.420;2023-12-14T10:54:23;7.07;;;4.22;;
71769;SDS011;66386;52.122;5.420;2023-12-14T10:56:54;5.20;;;3.43;;
71769;SDS011;66386;52.122;5.420;2023-12-14T10:59:25;4.85;;;4.20;;
71769;SDS011;66386;52.122;5.420;2023-12-14T11:01:52;5.30;;;3.83;;
71769;SDS011;66386;52.122;5.420;2023-12-14T11:04:25;6.30;;;3.80;;
71769;SDS011;66386;52.122;5.420;2023-12-14T11:06:53;5.53;;;3.35;;
71769;SDS011;66386;52.122;5.420;2023-12-14T11:09:22;6.90;;;3.63;;
71769;SDS011;66386;52.122;5.420;2023-12-14T11:14:22;6.55;;;3.83;;
71769;SDS011;66386;52.122;5.420;2023-12-14T11:16:51;6.43;;;3.83;;
71769;SDS011;66386;52.122;5.420;2023-12-14T11:21:48;7.70;;;4.40;;
71769;SDS011;66386;52.122;5.420;2023-12-14T11:24:15;12.95;;;5.40;;
71769;SDS011;66386;52.122;5.420;2023-12-14T11:26:41;9.55;;;4.28;;
71769;SDS011;66386;52.122;5.420;2023-12-14T11:29:08;6.32;;;3.80;;
71769;SDS011;66386;52.122;5.420;2023-12-14T11:31:35;8.10;;;4.22;;
71769;SDS011;66386;52.122;5.420;2023-12-14T11:34:02;4.77;;;3.33;;
71769;SDS011;66386;52.122;5.420;2023-12-14T11:36:29;7.82;;;3.90;;
71769;SDS011;66386;52.122;5.420;2023-12-14T11:38:56;6.10;;;4.20;;
71769;SDS011;66386;52.122;5.420;2023-12-14T11:41:22;5.63;;;3.47;;
71769;SDS011;66386;52.122;5.420;2023-12-14T11:43:51;6.65;;;3.45;;
71769;SDS011;66386;52.122;5.420;2023-12-14T11:46:18;6.80;;;3.57;;
71769;SDS011;66386;52.122;5.420;2023-12-14T11:48:45;6.40;;;3.40;;
71769;SDS011;66386;52.122;5.420;2023-12-14T11:51:12;6.28;;;3.40;;
71769;SDS011;66386;52.122;5.420;2023-12-14T11:53:39;7.15;;;3.95;;
71769;SDS011;66386;52.122;5.420;2023-12-14T11:56:06;5.57;;;3.80;;
71769;SDS011;66386;52.122;5.420;2023-12-14T11:58:33;6.17;;;3.80;;
71769;SDS011;66386;52.122;5.420;2023-12-14T12:03:43;7.95;;;3.60;;
71769;SDS011;66386;52.122;5.420;2023-12-14T12:06:29;5.55;;;3.83;;
71769;SDS011;66386;52.122;5.420;2023-12-14T12:08:55;5.38;;;3.90;;
71769;SDS011;66386;52.122;5.420;2023-12-14T12:11:22;5.50;;;3.47;;
71769;SDS011;66386;52.122;5.420;2023-12-14T12:13:52;6.22;;;3.90;;
71769;SDS011;66386;52.122;5.420;2023-12-14T12:16:21;9.45;;;3.90;;
71769;SDS011;66386;52.122;5.420;2023-12-14T12:18:48;6.65;;;3.90;;
71769;SDS011;66386;52.122;5.420;2023-12-14T12:21:17;6.13;;;3.35;;
71769;SDS011;66386;52.122;5.420;2023-12-14T12:23:43;5.70;;;3.70;;
71769;SDS011;66386;52.122;5.420;2023-12-14T12:26:10;8.77;;;3.90;;
71769;SDS011;66386;52.122;5.420;2023-12-14T12:28:36;5.72;;;3.15;;
71769;SDS011;66386;52.122;5.420;2023-12-14T12:31:03;4.65;;;3.17;;
71769;SDS011;66386;52.122;5.420;2023-12-14T12:33:30;5.95;;;3.78;;
71769;SDS011;66386;52.122;5.420;2023-12-14T12:36:03;4.47;;;3.50;;
71769;SDS011;66386;52.122;5.420;2023-12-14T12:38:31;4.68;;;3.38;;
71769;SDS011;66386;52.122;5.420;2023-12-14T12:40:58;5.03;;;3.75;;
71769;SDS011;66386;52.122;5.420;2023-12-14T12:43:26;5.25;;;3.58;;
71769;SDS011;66386;52.122;5.420;2023-12-14T12:45:53;6.28;;;3.30;;
71769;SDS011;66386;52.122;5.420;2023-12-14T12:48:19;7.00;;;4.10;;
71769;SDS011;66386;52.122;5.420;2023-12-14T12:50:49;6.43;;;3.42;;
71769;SDS011;66386;52.122;5.420;2023-12-14T12:53:15;6.22;;;3.42;;
71769;SDS011;66386;52.122;5.420;2023-12-14T12:55:42;5.10;;;3.33;;
71769;SDS011;66386;52.122;5.420;2023-12-14T12:58:08;6.30;;;3.95;;
71769;SDS011;66386;52.122;5.420;2023-12-14T13:00:35;4.47;;;3.67;;
71769;SDS011;66386;52.122;5.420;2023-12-14T13:03:02;4.40;;;3.28;;
71769;SDS011;66386;52.122;5.420;2023-12-14T13:05:29;4.72;;;3.08;;
71769;SDS011;66386;52.122;5.420;2023-12-14T13:07:55;4.60;;;3.30;;
71769;SDS011;66386;52.122;5.420;2023-12-14T13:10:23;4.20;;;3.30;;
71769;SDS011;66386;52.122;5.420;2023-12-14T13:12:57;7.40;;;3.27;;
71769;SDS011;66386;52.122;5.420;2023-12-14T13:15:24;5.72;;;3.17;;
71769;SDS011;66386;52.122;5.420;2023-12-14T13:17:52;4.85;;;3.15;;
71769;SDS011;66386;52.122;5.420;2023-12-14T13:20:19;3.47;;;2.60;;
71769;SDS011;66386;52.122;5.420;2023-12-14T13:22:46;4.75;;;3.22;;
71769;SDS011;66386;52.122;5.420;2023-12-14T13:25:12;4.97;;;2.87;;
71769;SDS011;66386;52.122;5.420;2023-12-14T13:27:40;5.53;;;2.83;;
71769;SDS011;66386;52.122;5.420;2023-12-14T13:30:07;5.47;;;2.80;;
71769;SDS011;66386;52.122;5.420;2023-12-14T13:32:34;4.57;;;2.63;;
71769;SDS011;66386;52.122;5.420;2023-12-14T13:35:01;4.10;;;2.30;;
71769;SDS011;66386;52.122;5.420;2023-12-14T13:37:28;4.70;;;2.87;;
71769;SDS011;66386;52.122;5.420;2023-12-14T13:39:55;5.38;;;2.83;;
71769;SDS011;66386;52.122;5.420;2023-12-14T13:42:22;3.53;;;2.28;;
71769;SDS011;66386;52.122;5.420;2023-12-14T13:44:48;5.43;;;2.28;;
71769;SDS011;66386;52.122;5.420;2023-12-14T13:47:14;4.55;;;2.45;;
71769;SDS011;66386;52.122;5.420;2023-12-14T13:49:41;4.53;;;2.27;;
71769;SDS011;66386;52.122;5.420;2023-12-14T13:52:08;3.45;;;2.15;;
71769;SDS011;66386;52.122;5.420;2023-12-14T13:54:35;3.75;;;1.95;;
71769;SDS011;66386;52.122;5.420;2023-12-14T13:57:03;3.90;;;2.22;;
71769;SDS011;66386;52.122;5.420;2023-12-14T13:59:29;7.00;;;2.10;;
71769;SDS011;66386;52.122;5.420;2023-12-14T14:01:56;3.67;;;2.13;;
71769;SDS011;66386;52.122;5.420;2023-12-14T14:04:22;5.03;;;2.20;;
71769;SDS011;66386;52.122;5.420;2023-12-14T14:06:49;4.15;;;1.80;;
71769;SDS011;66386;52.122;5.420;2023-12-14T14:09:15;3.45;;;2.17;;
71769;SDS011;66386;52.122;5.420;2023-12-14T14:11:42;3.55;;;2.08;;
71769;SDS011;66386;52.122;5.420;2023-12-14T14:14:14;4.40;;;2.50;;
71769;SDS011;66386;52.122;5.420;2023-12-14T14:16:41;3.65;;;2.17;;
71769;SDS011;66386;52.122;5.420;2023-12-14T14:19:08;3.03;;;2.30;;
71769;SDS011;66386;52.122;5.420;2023-12-14T14:21:34;3.63;;;2.30;;
71769;SDS011;66386;52.122;5.420;2023-12-14T14:24:01;4.55;;;2.80;;
71769;SDS011;66386;52.122;5.420;2023-12-14T14:26:27;4.10;;;2.73;;
71769;SDS011;66386;52.122;5.420;2023-12-14T14:28:54;5.63;;;3.35;;
71769;SDS011;66386;52.122;5.420;2023-12-14T14:31:26;5.47;;;3.55;;
71769;SDS011;66386;52.122;5.420;2023-12-14T14:33:56;5.57;;;3.40;;
71769;SDS011;66386;52.122;5.420;2023-12-14T14:36:22;5.82;;;3.15;;
71769;SDS011;66386;52.122;5.420;2023-12-14T14:38:49;6.00;;;3.70;;
71769;SDS011;66386;52.122;5.420;2023-12-14T14:41:16;7.93;;;3.92;;
71769;SDS011;66386;52.122;5.420;2023-12-14T14:43:44;6.65;;;4.03;;
71769;SDS011;66386;52.122;5.420;2023-12-14T14:46:11;5.25;;;2.95;;
71769;SDS011;66386;52.122;5.420;2023-12-14T14:48:37;5.32;;;3.20;;
71769;SDS011;66386;52.122;5.420;2023-12-14T14:51:04;4.80;;;3.20;;
71769;SDS011;66386;52.122;5.420;2023-12-14T14:53:35;5.88;;;3.70;;